Commit graph

91 commits

Author SHA1 Message Date
ec77ce845d update packages 2023-07-03 20:46:09 +10:00
ce9fa22a30 Add types to components and remove unused components 2023-07-03 20:46:03 +10:00
a093df0db6 Update package-lock.json 2023-06-27 18:13:38 +01:00
6610c0273d Update package-lock.json 2023-05-21 21:27:57 +01:00
afdc3ce24e Test build workflow 2023-05-21 21:04:28 +01:00
f48ef67fd2 Add test workflow 2023-05-07 16:18:36 +01:00
471ccaed32 Preload banner image 2023-03-26 08:39:47 +01:00
ba899f84cd Update package-lock.json 2023-03-19 09:18:51 +00:00
cc1bb33c6a Remove bootstrap dependency 2023-03-19 08:38:11 +00:00
49bc8cfe99 Fix build/layout issues 2023-01-03 19:41:40 +00:00
a85a4d8770 Update to sveltekit 1.0 2022-12-27 14:10:48 +00:00
8079ad646d Remove policy page 2022-10-09 16:28:54 +01:00
43b0f5be60 Update config/packages 2022-09-04 15:55:40 +01:00
461e0c412b Remove blog/cleanup 2022-05-24 19:39:44 +01:00
9fbf336f1f More navigation fixes 2022-05-23 21:25:15 +01:00
d866fb1c5d Improve navigation 2022-05-23 21:06:56 +01:00
98c681b670 Testing typescript 2022-05-21 15:16:10 +01:00
19cf7df555 Update nav links 2022-02-06 17:44:17 +00:00
16aa3a4288 Test 2022-02-06 14:40:23 +00:00
ff400df625 Test 2022-02-06 14:27:41 +00:00
e276a24c12 Test 2022-02-06 14:19:00 +00:00
d4cd873a17 Update year 2022-02-06 14:17:14 +00:00
bd5ddeb84f Update package-lock.json 2022-02-06 13:47:59 +00:00
eba2837fd9 Small fix 2022-01-24 22:50:07 +00:00
9aa0570e0e Update package.json 2022-01-01 16:14:15 +00:00
e3a9f76fe2 Testing 2021-12-24 11:47:14 +00:00
35bf39f328 Update README.md 2021-11-20 19:42:21 +00:00
56e064346c Adjust background/font color 2021-11-20 19:28:34 +00:00
ad0bbd26db Squashed commit of the following: commit 787b84159c894cb38ea9eb1423069884f8b56bc4 Author: ChrisDill <chris.rj.dill@gmail.com> Date: Sat Jul 24 16:57:16 2021 +0100 Test footer fix for smaller resolutions commit bc8cba413d12250d76118ce31668a6dd4e8eebbd Author: ChrisDill <chris.rj.dill@gmail.com> Date: Wed Jul 21 18:53:05 2021 +0100 Add jsconfig.json and update error/layout prefix commit 03d1cfced8b095ff79173a25ac2612aaa7f895aa Author: ChrisDill <chris.rj.dill@gmail.com> Date: Wed Jul 21 18:06:45 2021 +0100 Test sveltekit fixes to get static adapter to work commit 6f4c28b0ead9d758fbb649d13188da38a6dfb00f Author: ChrisDill <chris.rj.dill@gmail.com> Date: Wed Dec 16 10:25:42 2020 +0000 Initial sveltekit test - New branch for testing out sveltekit. It is not yet 1.0 so this is for experimental purposes. 2021-07-26 12:22:47 +01:00
8d212ccda6 Update overlay and border color 2021-07-08 21:06:12 +01:00
b785dbe0d5 Update background-color for content 2021-07-01 20:41:29 +01:00
0817bfff1b More updates - Add Back to top link in footer component. - Remove unused slider css for now. 2021-03-29 14:31:28 +01:00
81ca46e9bb Improve blog setup - Use post title in banner. - Add native.css for testing syntax highlighting. 2021-03-11 21:09:55 +00:00
e5d1b3235a Move padding directly to links and add color transition - Add more space for the links making it easier to click. - Add spacing between text and underline which looks nicer. - Add 0.1s linear transition to all link colors. 2021-03-08 15:59:53 +00:00
b018eab71d Preload banner image 2021-02-21 10:46:18 +00:00
231f08252c Update thumbnail component - Pass in img size to help with load times and reduce layout shifts. - Rename gameProjectThumb.svelte to thumbnail.svelte. 2021-02-21 10:37:03 +00:00
00628c5548 Another minor change 2021-02-16 21:59:09 +00:00
a51f48a404 Add font and fix css for li - Added Open Sans to template.html. - Changed li style to only apply if in nav. 2021-02-09 22:48:00 +00:00
e2c4a30e84 Update privacy policy - Updated last update notice. - Adjust capitalization and formatting. - Amended changes section. 2021-02-09 22:42:59 +00:00
e30c1ccc03 Add google analytics 2021-02-06 23:51:36 +00:00
ad2e00a090 Review global.css - Trying to make it less of a mess. 2021-02-06 22:41:16 +00:00
1811a89bb1 Update _error layout - Added Banner component. - Cleanup formatting and indentation issues. - Made CSS clearer and easier to change. 2021-02-06 21:52:05 +00:00
5843860f3b Update README.md 2021-01-28 11:19:38 +00:00
69cd3e4427 Update copyright year 2021-01-03 16:42:37 +00:00
43726e3b6a Remove unused manifest link 2020-12-19 18:44:46 +00:00
8af33777d6 Add border-top to .overlay and changed color from line-color to border-color 2020-12-19 16:14:22 +00:00
585c259f66 Adjust line-height for content - Reduced line-height from 1.8 to 1.6. 2020-12-19 13:19:24 +00:00
f3a92d83a4 Improve footer - Moved container class into footer. - Added py-3 for footer padding. Not sure if I prefer this to using the stylesheet. - Replaced hr with border-top. 2020-12-13 12:53:21 +00:00
c1977038f4 Remove container from nav - Replaced container for the nav component with a custom style instead using max-width and margin: 0 auto. 2020-12-13 12:33:44 +00:00
8b1e607b91 Move themes.css into global.css 2020-11-17 10:59:12 +00:00